createdAt,value
2018-12-31T00:00:49.843Z,1007.39
2018-12-31T00:01:59.714Z,1007.35
2018-12-31T00:03:09.806Z,1007.37
2018-12-31T00:04:19.889Z,1007.44
2018-12-31T00:05:30.043Z,1007.34
2018-12-31T00:06:40.120Z,1007.47
2018-12-31T00:07:50.188Z,1007.44
2018-12-31T00:09:00.259Z,1007.47
2018-12-31T00:10:10.334Z,1007.51
2018-12-31T00:11:20.459Z,1007.47
2018-12-31T00:12:30.268Z,1007.51
2018-12-31T00:13:40.382Z,1007.52
2018-12-31T00:14:50.473Z,1007.47
2018-12-31T00:16:00.710Z,1007.52
2018-12-31T00:17:10.836Z,1007.51
2018-12-31T00:18:20.918Z,1007.57
2018-12-31T00:19:30.981Z,1007.51
2018-12-31T00:20:41.037Z,1007.56
2018-12-31T00:21:51.106Z,1007.58
2018-12-31T00:23:01.637Z,1007.57
2018-12-31T00:24:11.721Z,1007.61
2018-12-31T00:25:21.778Z,1007.57
2018-12-31T00:26:31.848Z,1007.62
2018-12-31T00:27:41.928Z,1007.66
2018-12-31T00:28:51.528Z,1007.67
2018-12-31T00:30:01.595Z,1007.62
2018-12-31T00:31:11.822Z,1007.7
2018-12-31T00:32:21.903Z,1007.59
2018-12-31T00:33:32.036Z,1007.65
2018-12-31T00:34:42.100Z,1007.73
2018-12-31T00:35:51.654Z,1007.77
2018-12-31T00:37:01.721Z,1007.76
2018-12-31T00:38:11.800Z,1007.74
2018-12-31T00:39:21.873Z,1007.82
2018-12-31T00:40:31.981Z,1007.78
2018-12-31T00:41:41.532Z,1007.8
2018-12-31T00:42:58.858Z,1007.81
2018-12-31T00:44:08.934Z,1007.92
2018-12-31T00:45:19.016Z,1007.87
2018-12-31T00:46:29.079Z,1007.92
2018-12-31T00:47:39.153Z,1007.99
2018-12-31T00:48:49.211Z,1007.95
2018-12-31T00:49:59.269Z,1008.04
2018-12-31T00:51:09.353Z,1007.89
2018-12-31T00:52:19.161Z,1007.93
2018-12-31T00:53:29.222Z,1007.91
2018-12-31T00:54:39.297Z,1008
2018-12-31T00:55:49.111Z,1007.82
2018-12-31T00:56:59.192Z,1007.93
2018-12-31T00:58:09.072Z,1007.85
2018-12-31T00:59:19.134Z,1007.82
2018-12-31T01:00:29.464Z,1007.89
2018-12-31T01:01:39.545Z,1007.94
2018-12-31T01:02:49.685Z,1007.93
2018-12-31T01:03:59.769Z,1007.96
2018-12-31T01:05:09.927Z,1007.97
2018-12-31T01:06:20.038Z,1007.98
2018-12-31T01:07:29.869Z,1007.9
2018-12-31T01:08:39.938Z,1007.89
2018-12-31T01:09:50.018Z,1007.92
2018-12-31T01:11:00.091Z,1007.89
2018-12-31T01:12:10.175Z,1007.94
2018-12-31T01:13:20.248Z,1007.93
2018-12-31T01:14:30.326Z,1007.94
2018-12-31T01:15:40.145Z,1007.88
2018-12-31T01:16:50.204Z,1007.95
2018-12-31T01:18:00.016Z,1007.98
2018-12-31T01:19:10.074Z,1007.98
2018-12-31T01:20:20.126Z,1007.95
2018-12-31T01:21:30.239Z,1008.05
2018-12-31T01:22:40.331Z,1008.06
2018-12-31T01:23:50.214Z,1008.03
2018-12-31T01:25:02.420Z,1008.02
2018-12-31T01:26:12.495Z,1008.07
2018-12-31T01:27:22.570Z,1008.07
2018-12-31T01:28:32.671Z,1008.07
2018-12-31T01:29:42.731Z,1008.07
2018-12-31T01:30:52.789Z,1008.11
2018-12-31T01:32:02.850Z,1008.12
2018-12-31T01:33:12.665Z,1008.14
2018-12-31T01:34:22.734Z,1008.14
2018-12-31T01:35:32.813Z,1008.18
2018-12-31T01:36:42.388Z,1008.12
2018-12-31T01:37:52.523Z,1008.19
2018-12-31T01:39:02.652Z,1008.2
2018-12-31T01:40:12.718Z,1008.2
2018-12-31T01:41:22.536Z,1008.2
2018-12-31T01:42:32.607Z,1008.23
2018-12-31T01:43:42.689Z,1008.29
2018-12-31T01:44:52.797Z,1008.31
2018-12-31T01:46:02.853Z,1008.38
2018-12-31T01:47:12.679Z,1008.33
2018-12-31T01:48:22.746Z,1008.37
2018-12-31T01:49:32.820Z,1008.38
2018-12-31T01:50:42.889Z,1008.42
2018-12-31T01:51:52.956Z,1008.42
2018-12-31T01:53:03.030Z,1008.45
2018-12-31T01:54:13.074Z,1008.44
2018-12-31T01:55:23.120Z,1008.47
2018-12-31T01:56:33.182Z,1008.46
2018-12-31T01:57:43.251Z,1008.54
2018-12-31T01:58:53.317Z,1008.52
2018-12-31T02:00:03.432Z,1008.5
2018-12-31T02:01:14.210Z,1008.5
2018-12-31T02:02:24.295Z,1008.47
2018-12-31T02:03:34.091Z,1008.46
2018-12-31T02:04:44.198Z,1008.45
2018-12-31T02:05:54.276Z,1008.46
2018-12-31T02:07:04.358Z,1008.42
2018-12-31T02:08:14.169Z,1008.38
2018-12-31T02:09:24.216Z,1008.38
2018-12-31T02:10:34.288Z,1008.41
2018-12-31T02:11:44.358Z,1008.37
2018-12-31T02:12:54.427Z,1008.45
2018-12-31T02:14:04.511Z,1008.44
2018-12-31T02:15:14.343Z,1008.45
2018-12-31T02:16:24.414Z,1008.46
2018-12-31T02:17:34.469Z,1008.43
2018-12-31T02:18:45.590Z,1008.47
2018-12-31T02:19:55.737Z,1008.47
2018-12-31T02:21:06.404Z,1008.42
2018-12-31T02:22:16.191Z,1008.44
2018-12-31T02:23:25.998Z,1008.39
2018-12-31T02:24:36.103Z,1008.42
2018-12-31T02:25:46.202Z,1008.38
2018-12-31T02:26:56.257Z,1008.48
2018-12-31T02:28:05.802Z,1008.45
2018-12-31T02:29:15.871Z,1008.35
2018-12-31T02:30:25.968Z,1008.33
2018-12-31T02:31:36.042Z,1008.37
2018-12-31T02:32:46.127Z,1008.26
2018-12-31T02:33:56.222Z,1008.2
2018-12-31T02:35:06.919Z,1008.23
2018-12-31T02:36:16.977Z,1008.17
2018-12-31T02:37:27.102Z,1008.14
2018-12-31T02:38:37.168Z,1008.15
2018-12-31T02:39:47.338Z,1008.17
2018-12-31T02:40:57.179Z,1008.21
2018-12-31T02:42:07.243Z,1008.22
2018-12-31T02:43:17.059Z,1008.21
2018-12-31T02:44:26.902Z,1008.17
2018-12-31T02:45:36.955Z,1008.15
2018-12-31T02:46:47.010Z,1008.14
2018-12-31T02:47:56.557Z,1008.19
2018-12-31T02:49:06.416Z,1008.18
2018-12-31T02:50:16.462Z,1008.2
2018-12-31T02:51:26.288Z,1008.18
2018-12-31T02:52:36.373Z,1008.12
2018-12-31T02:53:47.635Z,1008.18
2018-12-31T02:54:57.932Z,1008.19
2018-12-31T02:56:08.045Z,1008.17
2018-12-31T02:57:18.120Z,1008.21
2018-12-31T02:58:28.210Z,1008.27
2018-12-31T02:59:38.261Z,1008.24
2018-12-31T03:00:48.118Z,1008.23
2018-12-31T03:01:58.212Z,1008.24
2018-12-31T03:34:49.193Z,1008.26
2018-12-31T03:35:59.321Z,1008.25
2018-12-31T03:37:09.404Z,1008.2
2018-12-31T03:38:19.475Z,1008.18
2018-12-31T03:39:29.119Z,1008.17
2018-12-31T03:40:39.231Z,1008.2
2018-12-31T03:41:49.298Z,1008.25
2018-12-31T03:42:59.096Z,1008.3
2018-12-31T03:44:09.172Z,1008.23
2018-12-31T03:45:19.230Z,1008.29
2018-12-31T03:46:29.294Z,1008.34
2018-12-31T03:47:39.394Z,1008.32
2018-12-31T03:48:49.193Z,1008.27
2018-12-31T03:49:59.250Z,1008.33
2018-12-31T03:51:09.556Z,1008.35
2018-12-31T03:52:19.620Z,1008.4
2018-12-31T03:53:29.698Z,1008.39
2018-12-31T03:54:39.765Z,1008.42
2018-12-31T03:55:49.329Z,1008.38
2018-12-31T03:56:59.383Z,1008.46
2018-12-31T03:58:09.458Z,1008.37
2018-12-31T03:59:19.516Z,1008.45
2018-12-31T04:00:29.332Z,1008.45
2018-12-31T04:01:39.401Z,1008.45
2018-12-31T04:02:49.233Z,1008.44
2018-12-31T04:03:59.372Z,1008.42
2018-12-31T04:05:09.213Z,1008.38
2018-12-31T04:06:19.303Z,1008.45
2018-12-31T04:07:29.361Z,1008.42
2018-12-31T04:08:39.419Z,1008.45
2018-12-31T04:09:49.534Z,1008.57
2018-12-31T04:10:59.606Z,1008.55
2018-12-31T04:12:09.674Z,1008.57
2018-12-31T04:13:19.819Z,1008.53
2018-12-31T04:14:29.886Z,1008.51
2018-12-31T04:15:39.954Z,1008.63
2018-12-31T04:16:50.024Z,1008.65
2018-12-31T04:18:00.095Z,1008.64
2018-12-31T04:19:09.900Z,1008.77
2018-12-31T04:20:19.973Z,1008.72
2018-12-31T04:21:30.129Z,1008.61
2018-12-31T04:22:40.199Z,1008.66
2018-12-31T04:23:50.299Z,1008.72
2018-12-31T04:25:01.648Z,1008.79
2018-12-31T04:26:11.700Z,1008.67
2018-12-31T04:27:21.831Z,1008.79
2018-12-31T04:28:31.955Z,1008.75
2018-12-31T04:29:41.508Z,1008.76
2018-12-31T04:30:51.317Z,1008.81
2018-12-31T04:32:01.381Z,1008.82
2018-12-31T04:33:11.468Z,1008.8
2018-12-31T04:34:21.274Z,1008.8
2018-12-31T04:35:31.353Z,1008.82
2018-12-31T04:36:41.449Z,1008.73
2018-12-31T04:37:51.509Z,1008.79
2018-12-31T04:39:01.690Z,1008.84
2018-12-31T04:40:11.767Z,1008.82
2018-12-31T04:41:21.844Z,1008.84
2018-12-31T04:42:31.990Z,1008.87
2018-12-31T04:43:42.067Z,1008.85
2018-12-31T04:44:51.986Z,1008.85
2018-12-31T04:46:02.067Z,1008.93
2018-12-31T04:47:12.170Z,1008.92
2018-12-31T04:48:21.951Z,1008.97
2018-12-31T04:49:32.014Z,1008.97
2018-12-31T04:50:42.073Z,1009.03
2018-12-31T04:51:52.126Z,1008.96
2018-12-31T04:53:02.182Z,1008.91
2018-12-31T04:54:12.258Z,1009.02
2018-12-31T04:55:22.070Z,1009.04
2018-12-31T04:56:31.869Z,1009.06
2018-12-31T04:57:41.918Z,1009.05
2018-12-31T04:58:51.996Z,1009.11
2018-12-31T05:00:02.168Z,1009.16
2018-12-31T05:01:12.933Z,1009.16
2018-12-31T05:02:22.766Z,1009.15
2018-12-31T05:03:32.853Z,1009.13
2018-12-31T05:04:42.915Z,1009.19
2018-12-31T05:05:53.018Z,1009.23
2018-12-31T05:07:03.072Z,1009.28
2018-12-31T05:08:12.867Z,1009.34
2018-12-31T05:09:22.423Z,1009.33
2018-12-31T05:10:32.515Z,1009.38
2018-12-31T05:11:42.349Z,1009.33
2018-12-31T05:12:52.978Z,1009.4
2018-12-31T05:14:02.860Z,1009.36
2018-12-31T05:15:12.770Z,1009.36
2018-12-31T05:16:22.876Z,1009.4
2018-12-31T05:17:32.943Z,1009.43
2018-12-31T05:18:43.020Z,1009.46
2018-12-31T05:19:53.107Z,1009.46
2018-12-31T05:21:03.228Z,1009.48
2018-12-31T05:22:13.303Z,1009.39
2018-12-31T05:23:23.347Z,1009.5
2018-12-31T05:24:32.914Z,1009.47
2018-12-31T05:25:42.977Z,1009.49
2018-12-31T05:26:53.047Z,1009.47
2018-12-31T05:28:02.904Z,1009.53
2018-12-31T05:29:12.975Z,1009.49
2018-12-31T05:30:23.059Z,1009.59
2018-12-31T05:31:32.875Z,1009.61
2018-12-31T05:32:42.446Z,1009.58
2018-12-31T05:33:54.245Z,1009.58
2018-12-31T05:35:04.038Z,1009.59
2018-12-31T05:36:13.898Z,1009.57
2018-12-31T05:37:23.953Z,1009.6
2018-12-31T05:38:34.017Z,1009.57
2018-12-31T05:39:44.074Z,1009.56
2018-12-31T05:40:54.135Z,1009.59
2018-12-31T05:42:04.221Z,1009.6
2018-12-31T05:43:14.049Z,1009.57
2018-12-31T05:44:24.110Z,1009.54
2018-12-31T05:45:34.165Z,1009.58
2018-12-31T05:46:44.220Z,1009.51
2018-12-31T05:47:54.288Z,1009.53
2018-12-31T05:49:05.388Z,1009.55
2018-12-31T05:50:15.185Z,1009.6
2018-12-31T05:51:25.266Z,1009.55
2018-12-31T05:52:35.076Z,1009.56
2018-12-31T05:53:44.937Z,1009.53
2018-12-31T05:54:55.005Z,1009.52
2018-12-31T05:56:05.074Z,1009.51
2018-12-31T05:57:15.177Z,1009.54
2018-12-31T05:58:25.248Z,1009.53
2018-12-31T05:59:35.051Z,1009.44
2018-12-31T06:00:45.112Z,1009.51
2018-12-31T06:01:55.186Z,1009.48
2018-12-31T06:03:05.327Z,1009.55
2018-12-31T06:04:15.148Z,1009.58
2018-12-31T06:05:25.218Z,1009.58
2018-12-31T06:06:35.017Z,1009.62
2018-12-31T06:07:45.079Z,1009.74
2018-12-31T06:08:55.150Z,1009.73
2018-12-31T06:10:04.696Z,1009.78
2018-12-31T06:11:14.503Z,1009.84
2018-12-31T06:12:24.570Z,1009.85
2018-12-31T06:13:34.644Z,1009.91
2018-12-31T06:14:44.698Z,1009.87
2018-12-31T06:15:54.495Z,1009.95
2018-12-31T06:17:05.209Z,1009.93
2018-12-31T06:18:15.091Z,1010.02
2018-12-31T06:19:25.173Z,1009.94
2018-12-31T06:20:35.235Z,1010.04
2018-12-31T06:21:45.033Z,1010.09
2018-12-31T06:22:55.095Z,1010.06
2018-12-31T06:24:05.167Z,1010.08
2018-12-31T06:25:15.979Z,1010.1
2018-12-31T06:26:25.890Z,1010.13
2018-12-31T06:27:35.713Z,1010.12
2018-12-31T06:28:45.528Z,1010.13
2018-12-31T06:29:55.352Z,1010.15
2018-12-31T06:31:07.518Z,1010.17
2018-12-31T06:32:17.336Z,1010.12
2018-12-31T06:33:27.378Z,1010.24
2018-12-31T06:34:37.431Z,1010.18
2018-12-31T06:35:47.508Z,1010.24
2018-12-31T06:36:57.584Z,1010.28
2018-12-31T06:38:07.672Z,1010.34
2018-12-31T06:39:17.757Z,1010.29
2018-12-31T06:40:28.615Z,1010.26
2018-12-31T06:41:38.746Z,1010.25
2018-12-31T06:42:48.580Z,1010.33
2018-12-31T06:43:58.639Z,1010.26
2018-12-31T06:45:08.723Z,1010.27
2018-12-31T06:46:18.527Z,1010.21
2018-12-31T06:47:28.338Z,1010.25
2018-12-31T06:48:38.159Z,1010.33
2018-12-31T06:49:48.217Z,1010.35
2018-12-31T06:50:58.099Z,1010.34
2018-12-31T06:52:08.163Z,1010.37
2018-12-31T06:53:18.224Z,1010.35
2018-12-31T06:54:28.060Z,1010.36
2018-12-31T06:55:38.127Z,1010.4
2018-12-31T06:56:47.939Z,1010.41
2018-12-31T06:57:58.030Z,1010.42
2018-12-31T06:59:08.133Z,1010.43
2018-12-31T07:00:18.223Z,1010.48
2018-12-31T07:01:28.047Z,1010.45
2018-12-31T07:02:37.858Z,1010.57
2018-12-31T07:03:47.994Z,1010.46
2018-12-31T07:04:57.548Z,1010.46
2018-12-31T07:06:07.609Z,1010.46
2018-12-31T07:07:17.672Z,1010.54
2018-12-31T07:08:27.762Z,1010.53
2018-12-31T07:09:37.824Z,1010.52
2018-12-31T07:10:47.899Z,1010.57
2018-12-31T07:11:57.693Z,1010.59
2018-12-31T07:13:07.558Z,1010.6
2018-12-31T07:14:17.632Z,1010.55
2018-12-31T07:15:27.698Z,1010.63
2018-12-31T07:16:37.774Z,1010.64
2018-12-31T07:17:47.841Z,1010.65
2018-12-31T07:18:57.908Z,1010.6
2018-12-31T07:20:10.078Z,1010.61
2018-12-31T07:21:21.217Z,1010.67
2018-12-31T07:22:31.276Z,1010.7
2018-12-31T07:23:41.348Z,1010.63
2018-12-31T07:24:51.418Z,1010.67
2018-12-31T07:26:01.322Z,1010.67
2018-12-31T07:27:11.383Z,1010.68
2018-12-31T07:28:21.194Z,1010.65
2018-12-31T07:29:31.341Z,1010.73
2018-12-31T07:30:41.407Z,1010.65
2018-12-31T07:31:51.451Z,1010.68
2018-12-31T07:33:01.579Z,1010.74
2018-12-31T07:34:11.619Z,1010.71
2018-12-31T07:35:21.683Z,1010.64
2018-12-31T07:36:31.480Z,1010.63
2018-12-31T07:37:41.519Z,1010.65
2018-12-31T07:38:51.584Z,1010.71
2018-12-31T07:40:01.649Z,1010.68
2018-12-31T07:41:11.769Z,1010.72
2018-12-31T07:42:21.852Z,1010.78
2018-12-31T07:43:31.917Z,1010.71
2018-12-31T07:44:41.471Z,1010.71
2018-12-31T07:45:50.749Z,1010.73
2018-12-31T07:47:00.810Z,1010.84
2018-12-31T07:48:10.900Z,1010.77
2018-12-31T07:49:20.962Z,1010.86
2018-12-31T07:50:30.769Z,1010.8
2018-12-31T07:51:40.882Z,1010.8
2018-12-31T07:52:50.926Z,1010.86
2018-12-31T07:54:01.348Z,1010.87
2018-12-31T07:55:11.257Z,1010.94
2018-12-31T07:56:21.319Z,1010.96
2018-12-31T07:57:31.387Z,1010.98
2018-12-31T07:58:42.665Z,1010.95
2018-12-31T07:59:52.740Z,1010.98
2018-12-31T08:01:02.970Z,1011
2018-12-31T08:02:13.190Z,1011.01
2018-12-31T08:03:23.278Z,1011.04
2018-12-31T08:04:33.083Z,1011
2018-12-31T08:05:43.167Z,1011.02
2018-12-31T08:06:53.217Z,1011.06
2018-12-31T08:08:03.272Z,1011.08
2018-12-31T08:09:13.315Z,1011.07
2018-12-31T08:10:23.377Z,1011.09
2018-12-31T08:11:33.445Z,1011.09
2018-12-31T08:12:43.572Z,1011.14
2018-12-31T08:13:53.647Z,1011.12
2018-12-31T08:15:03.712Z,1011.13
2018-12-31T08:16:13.760Z,1011.13
2018-12-31T08:17:23.881Z,1011.07
2018-12-31T08:18:33.949Z,1011.1
2018-12-31T08:19:43.505Z,1011.1
2018-12-31T08:20:53.312Z,1011.16
2018-12-31T08:22:03.974Z,1011.11
2018-12-31T08:23:14.035Z,1011.1
2018-12-31T08:24:23.854Z,1011.18
2018-12-31T08:25:33.911Z,1011.22
2018-12-31T08:26:43.971Z,1011.17
2018-12-31T08:27:54.049Z,1011.21
2018-12-31T08:29:04.161Z,1011.18
2018-12-31T08:30:14.220Z,1011.16
2018-12-31T08:31:24.316Z,1011.21
2018-12-31T08:32:34.381Z,1011.17
2018-12-31T08:33:44.438Z,1011.15
2018-12-31T08:34:54.528Z,1011.18
2018-12-31T08:36:04.404Z,1011.2
2018-12-31T08:37:14.526Z,1011.22
2018-12-31T08:38:24.587Z,1011.21
2018-12-31T08:39:34.668Z,1011.19
2018-12-31T08:40:44.753Z,1011.24
2018-12-31T08:41:54.778Z,1011.27
2018-12-31T08:43:04.903Z,1011.26
2018-12-31T08:44:14.957Z,1011.29
2018-12-31T08:45:25.041Z,1011.25
2018-12-31T08:46:35.107Z,1011.27
2018-12-31T08:47:45.189Z,1011.26
2018-12-31T08:48:55.228Z,1011.31
2018-12-31T08:50:05.150Z,1011.32
2018-12-31T08:51:15.216Z,1011.35
2018-12-31T08:52:25.290Z,1011.37
2018-12-31T08:53:35.374Z,1011.35
2018-12-31T08:54:45.423Z,1011.35
2018-12-31T08:55:55.256Z,1011.43
2018-12-31T08:57:05.072Z,1011.4
2018-12-31T08:58:15.142Z,1011.42
2018-12-31T08:59:25.206Z,1011.43
2018-12-31T09:00:35.028Z,1011.4
2018-12-31T09:01:44.847Z,1011.52
2018-12-31T09:02:54.660Z,1011.58
2018-12-31T09:04:04.739Z,1011.45
2018-12-31T09:05:14.808Z,1011.55
2018-12-31T09:06:24.875Z,1011.6
2018-12-31T09:07:34.972Z,1011.56
2018-12-31T09:08:45.043Z,1011.64
2018-12-31T09:09:54.860Z,1011.52
2018-12-31T09:11:04.715Z,1011.55
2018-12-31T09:12:14.579Z,1011.57
2018-12-31T09:13:24.680Z,1011.56
2018-12-31T09:14:34.752Z,1011.6
2018-12-31T09:15:44.574Z,1011.61
2018-12-31T09:16:54.632Z,1011.62
2018-12-31T09:18:05.339Z,1011.64
2018-12-31T09:19:15.252Z,1011.6
2018-12-31T09:20:25.315Z,1011.66
2018-12-31T09:21:36.270Z,1011.63
2018-12-31T09:22:46.097Z,1011.6
2018-12-31T09:23:56.235Z,1011.6
2018-12-31T09:25:06.298Z,1011.66
2018-12-31T09:26:16.362Z,1011.62
2018-12-31T09:27:26.446Z,1011.63
2018-12-31T09:28:36.510Z,1011.65
2018-12-31T09:29:46.329Z,1011.65
2018-12-31T09:30:56.407Z,1011.71
2018-12-31T09:32:08.346Z,1011.65
2018-12-31T09:33:18.448Z,1011.71
2018-12-31T09:34:28.577Z,1011.64
2018-12-31T09:35:38.128Z,1011.65
2018-12-31T09:36:48.214Z,1011.75
2018-12-31T09:37:58.296Z,1011.7
2018-12-31T09:39:08.755Z,1011.66
2018-12-31T09:40:18.819Z,1011.64
2018-12-31T09:41:28.634Z,1011.62
2018-12-31T09:42:38.709Z,1011.63
2018-12-31T09:43:48.797Z,1011.58
2018-12-31T09:44:58.616Z,1011.63
2018-12-31T09:46:09.289Z,1011.71
2018-12-31T09:47:19.336Z,1011.67
2018-12-31T09:48:29.403Z,1011.72
2018-12-31T09:49:39.465Z,1011.6
2018-12-31T09:50:49.525Z,1011.62
2018-12-31T09:51:59.613Z,1011.64
2018-12-31T09:53:09.418Z,1011.63
2018-12-31T09:54:20.415Z,1011.67
2018-12-31T09:55:30.522Z,1011.53
2018-12-31T09:56:40.639Z,1011.53
2018-12-31T09:57:50.698Z,1011.61
2018-12-31T09:59:00.847Z,1011.54
2018-12-31T10:00:10.986Z,1011.61
2018-12-31T10:01:21.603Z,1011.54
2018-12-31T10:02:31.687Z,1011.52
2018-12-31T10:03:41.744Z,1011.59
2018-12-31T10:04:52.697Z,1011.56
2018-12-31T10:06:02.744Z,1011.5
2018-12-31T10:07:12.552Z,1011.46
2018-12-31T10:08:22.677Z,1011.47
2018-12-31T10:09:32.565Z,1011.52
2018-12-31T10:10:42.121Z,1011.48
2018-12-31T10:11:52.888Z,1011.34
2018-12-31T10:13:02.669Z,1011.38
2018-12-31T10:14:12.479Z,1011.55
2018-12-31T10:15:22.543Z,1011.4
2018-12-31T10:16:32.626Z,1011.48
2018-12-31T10:17:42.703Z,1011.43
2018-12-31T10:18:52.752Z,1011.41
2018-12-31T10:20:02.815Z,1011.31
2018-12-31T10:21:12.899Z,1011.31
2018-12-31T10:22:23.606Z,1011.34
2018-12-31T10:23:33.677Z,1011.33
2018-12-31T10:24:43.765Z,1011.35
2018-12-31T10:25:53.835Z,1011.41
2018-12-31T10:27:03.662Z,1011.3
2018-12-31T10:28:13.590Z,1011.39
2018-12-31T10:29:23.661Z,1011.36
2018-12-31T10:30:40.943Z,1011.26
2018-12-31T10:31:51.016Z,1011.22
2018-12-31T10:33:01.281Z,1011.23
2018-12-31T10:34:11.327Z,1011.28
2018-12-31T10:35:21.160Z,1011.29
2018-12-31T10:36:31.208Z,1011.17
2018-12-31T10:37:41.319Z,1011.22
2018-12-31T10:38:51.421Z,1011.24
2018-12-31T10:40:02.786Z,1011.29
2018-12-31T10:41:12.975Z,1011.25
2018-12-31T10:42:23.078Z,1011.24
2018-12-31T10:43:33.202Z,1011.25
2018-12-31T10:44:43.040Z,1011.24
2018-12-31T10:45:52.841Z,1011.15
2018-12-31T10:47:02.933Z,1011.18
2018-12-31T10:48:13.109Z,1011.12
2018-12-31T10:49:22.701Z,1011.2
2018-12-31T10:50:32.772Z,1011.2
2018-12-31T10:51:42.856Z,1011.03
2018-12-31T10:52:52.683Z,1011.08
2018-12-31T10:54:02.750Z,1011.07
2018-12-31T10:55:12.815Z,1011.04
2018-12-31T10:56:22.925Z,1011
2018-12-31T10:57:33.006Z,1010.99
2018-12-31T10:58:43.083Z,1010.98
2018-12-31T10:59:53.161Z,1010.9
2018-12-31T11:01:03.472Z,1010.9
2018-12-31T11:02:13.542Z,1010.88
2018-12-31T11:03:23.897Z,1010.86
2018-12-31T11:04:33.981Z,1010.81
2018-12-31T11:05:44.060Z,1010.86
2018-12-31T11:06:53.953Z,1010.8
2018-12-31T11:08:04.040Z,1010.83
2018-12-31T11:09:15.850Z,1010.82
2018-12-31T11:10:25.984Z,1010.88
2018-12-31T11:11:36.062Z,1010.83
2018-12-31T11:12:46.127Z,1010.9
2018-12-31T11:13:56.427Z,1010.83
2018-12-31T11:15:06.512Z,1010.8
2018-12-31T11:16:16.319Z,1010.84
2018-12-31T11:17:26.405Z,1010.78
2018-12-31T11:18:36.479Z,1010.71
2018-12-31T11:19:46.618Z,1010.8
2018-12-31T11:20:56.703Z,1010.68
2018-12-31T11:22:06.775Z,1010.73
2018-12-31T11:23:16.839Z,1010.71
2018-12-31T11:24:26.642Z,1010.65
2018-12-31T11:25:37.806Z,1010.7
2018-12-31T11:26:47.965Z,1010.73
2018-12-31T11:27:57.777Z,1010.68
2018-12-31T11:29:07.590Z,1010.61
2018-12-31T11:30:17.658Z,1010.58
2018-12-31T11:31:30.139Z,1010.54
2018-12-31T11:32:40.727Z,1010.74
2018-12-31T11:33:50.549Z,1010.65
2018-12-31T11:35:00.719Z,1010.65
2018-12-31T11:36:10.827Z,1010.64
2018-12-31T11:37:20.897Z,1010.58
2018-12-31T11:38:37.596Z,1010.74
2018-12-31T11:39:47.676Z,1010.63
2018-12-31T11:40:57.745Z,1010.77
2018-12-31T11:42:07.822Z,1010.64
2018-12-31T11:43:17.872Z,1010.66
2018-12-31T11:44:27.933Z,1010.66
2018-12-31T11:45:38.042Z,1010.62
2018-12-31T11:46:47.588Z,1010.68
2018-12-31T11:47:57.675Z,1010.68
2018-12-31T11:49:07.751Z,1010.71
2018-12-31T11:50:17.815Z,1010.66
2018-12-31T11:51:27.882Z,1010.58
2018-12-31T11:52:37.435Z,1010.64
2018-12-31T11:53:47.492Z,1010.57
2018-12-31T11:54:57.302Z,1010.57
2018-12-31T11:56:08.904Z,1010.64
2018-12-31T11:57:18.800Z,1010.73
2018-12-31T11:58:28.888Z,1010.63
2018-12-31T11:59:38.997Z,1010.69
2018-12-31T12:00:49.065Z,1010.61
2018-12-31T12:01:58.867Z,1010.69
2018-12-31T12:03:08.933Z,1010.67
2018-12-31T12:04:19.014Z,1010.7
2018-12-31T12:05:29.103Z,1010.65
2018-12-31T12:06:38.924Z,1010.67
2018-12-31T12:07:48.980Z,1010.71
2018-12-31T12:08:59.044Z,1010.69
2018-12-31T12:10:09.132Z,1010.75
2018-12-31T12:11:19.248Z,1010.66
2018-12-31T12:12:29.120Z,1010.71
2018-12-31T12:13:38.994Z,1010.67
2018-12-31T12:14:49.095Z,1010.68
2018-12-31T12:15:58.954Z,1010.68
2018-12-31T12:17:08.932Z,1010.71
2018-12-31T12:18:19.020Z,1010.65
2018-12-31T12:19:29.128Z,1010.75
2018-12-31T12:20:39.232Z,1010.7
2018-12-31T12:21:49.064Z,1010.7
2018-12-31T12:22:58.907Z,1010.74
2018-12-31T12:24:09.037Z,1010.71
2018-12-31T12:25:19.133Z,1010.73
2018-12-31T12:26:29.032Z,1010.73
2018-12-31T12:27:39.177Z,1010.74
2018-12-31T12:28:49.362Z,1010.73
2018-12-31T12:29:58.717Z,1010.93
2018-12-31T12:31:08.550Z,1010.76
2018-12-31T12:32:18.720Z,1010.85
2018-12-31T12:33:29.403Z,1010.79
2018-12-31T12:34:41.391Z,1010.73
2018-12-31T12:35:52.011Z,1010.71
2018-12-31T12:37:02.319Z,1010.78
2018-12-31T12:38:12.159Z,1010.67
2018-12-31T12:39:21.987Z,1010.7
2018-12-31T12:40:32.106Z,1010.73
2018-12-31T12:41:42.187Z,1010.75
2018-12-31T12:42:52.270Z,1010.79
2018-12-31T12:44:02.369Z,1010.73
2018-12-31T12:45:12.225Z,1010.65
2018-12-31T12:46:22.339Z,1010.7
2018-12-31T12:47:32.425Z,1010.74
2018-12-31T12:48:42.285Z,1010.75
2018-12-31T12:49:52.400Z,1010.75
2018-12-31T12:51:02.012Z,1010.75
2018-12-31T12:52:12.118Z,1010.74
2018-12-31T12:53:22.260Z,1010.73
2018-12-31T12:54:32.334Z,1010.87
2018-12-31T12:55:42.439Z,1010.77
2018-12-31T12:56:52.555Z,1010.75
2018-12-31T12:58:02.697Z,1010.79
2018-12-31T12:59:12.535Z,1010.78
2018-12-31T13:00:22.375Z,1010.79
2018-12-31T13:01:31.955Z,1010.72
2018-12-31T13:02:42.048Z,1010.76
2018-12-31T13:03:52.433Z,1010.79
2018-12-31T13:05:03.682Z,1010.76
2018-12-31T13:06:14.460Z,1010.72
2018-12-31T13:07:25.142Z,1010.82
2018-12-31T13:08:35.664Z,1010.82
2018-12-31T13:09:45.818Z,1010.81
2018-12-31T13:10:55.963Z,1010.82
2018-12-31T13:12:06.099Z,1010.81
2018-12-31T13:13:15.936Z,1010.81
2018-12-31T13:14:26.088Z,1010.77
2018-12-31T13:15:36.187Z,1010.81
2018-12-31T13:16:46.294Z,1010.73
2018-12-31T13:17:56.406Z,1010.85
2018-12-31T13:19:06.349Z,1010.74
2018-12-31T13:20:16.458Z,1010.75
2018-12-31T13:21:26.583Z,1010.81
2018-12-31T13:22:36.727Z,1010.81
2018-12-31T13:23:46.835Z,1010.89
2018-12-31T13:24:56.658Z,1010.84
2018-12-31T13:26:06.764Z,1010.85
2018-12-31T13:27:16.872Z,1010.85
2018-12-31T13:28:26.990Z,1010.89
2018-12-31T13:29:37.096Z,1010.96
2018-12-31T13:30:47.253Z,1010.88
2018-12-31T13:31:57.342Z,1010.89
2018-12-31T13:33:07.457Z,1010.95
2018-12-31T13:34:17.586Z,1010.91
2018-12-31T13:35:28.011Z,1010.91
2018-12-31T13:36:38.631Z,1010.87
2018-12-31T13:37:49.393Z,1010.94
2018-12-31T13:38:59.934Z,1010.91
2018-12-31T13:40:10.551Z,1010.94
2018-12-31T13:41:20.975Z,1010.95
2018-12-31T13:42:31.074Z,1010.91
2018-12-31T13:43:40.739Z,1010.93
2018-12-31T13:44:50.830Z,1010.97
2018-12-31T13:46:01.002Z,1010.94
2018-12-31T13:47:11.294Z,1011
2018-12-31T13:48:20.944Z,1011
2018-12-31T13:49:31.516Z,1011.02
2018-12-31T13:50:41.680Z,1010.98
2018-12-31T13:51:51.776Z,1011.01
2018-12-31T13:53:01.648Z,1011.06
2018-12-31T13:54:11.862Z,1011.01
2018-12-31T13:55:22.025Z,1011.1
2018-12-31T13:56:32.226Z,1011.02
2018-12-31T13:57:42.350Z,1011.07
2018-12-31T13:58:52.487Z,1011.1
2018-12-31T14:00:03.028Z,1011.1
2018-12-31T14:01:13.830Z,1011.08
2018-12-31T14:02:23.747Z,1011.05
2018-12-31T14:03:33.894Z,1011.13
2018-12-31T14:04:43.759Z,1011.09
2018-12-31T14:05:53.672Z,1011.15
2018-12-31T14:07:04.196Z,1011.14
2018-12-31T14:08:15.025Z,1011.13
2018-12-31T14:09:25.626Z,1011.1
2018-12-31T14:10:36.247Z,1011.18
2018-12-31T14:11:46.544Z,1011.16
2018-12-31T14:12:56.675Z,1011.17
2018-12-31T14:14:06.771Z,1011.18
2018-12-31T14:15:16.892Z,1011.2
2018-12-31T14:16:27.012Z,1011.23
2018-12-31T14:17:37.931Z,1011.27
2018-12-31T14:18:48.036Z,1011.3
2018-12-31T14:19:59.079Z,1011.31
2018-12-31T14:21:10.561Z,1011.36
2018-12-31T14:22:20.682Z,1011.35
2018-12-31T14:23:30.875Z,1011.34
2018-12-31T14:24:41.011Z,1011.38
2018-12-31T14:25:51.142Z,1011.33
2018-12-31T14:27:01.362Z,1011.35
2018-12-31T14:28:11.579Z,1011.35
2018-12-31T14:29:21.738Z,1011.34
2018-12-31T14:30:31.850Z,1011.37
2018-12-31T14:31:41.987Z,1011.36
2018-12-31T14:32:52.116Z,1011.38
2018-12-31T14:34:02.109Z,1011.34
2018-12-31T14:35:12.231Z,1011.44
2018-12-31T14:36:22.355Z,1011.46
2018-12-31T14:37:33.109Z,1011.4
2018-12-31T14:38:43.949Z,1011.43
2018-12-31T14:39:54.615Z,1011.47
2018-12-31T14:41:04.989Z,1011.44
2018-12-31T14:42:16.611Z,1011.44
2018-12-31T14:43:26.482Z,1011.44